Tiempo atmosférico en la estación meteorológica de Guadalajara, Guadalajara (721 m.)



Fecha
DESCASC
Temp. máxima en grados centígrados (hora)
DESCASC
Temp. mínima en grados centígrados (hora)
DESCASC
Temp. media en grados centígrados
DESCASC
Racha de viento máxima en m/sg (hora)
DESCASC
Velocidad máxima media en intervalos de 10 minutos(hora)
DESCASC
Precipitaciones diarias en mm
DESCASC
Precipitaciones de 00:00 a 06:00 en mm
DESCASC
Precipitaciones de 06:00 a 12:00 en mm
DESCASC
Precipitaciones de 12:00 a 18:00 en mm
DESCASC
Precipitaciones de 18:00 a 24:00 en mm
DESCASC

Gráficas

Temp. máximas Temp. mínimas Temp. medias Precipitaciones Rachas de viento máximas Velocidades máximas media en intervalos de 10 minutos

Datos horarios

Fecha y hora oficial Temperatura (ºC) Velocidad del viento (km/h) Dirección del viento Racha (km/h) Dirección de racha Precipitación (mm) Presión (hPa) Tendencia (hPa) Humedad (%)
2019-06-24 23:00:00 27.4 9 Sudoeste 18 Sudoeste 0 930.4 1.1 30
2019-06-24 22:00:00 28 3 Sur 9 Nordeste 0 929.9 0.6 30
2019-06-24 21:00:00 30.1 4 Oeste 15 Sudoeste 0 929.6 0.1 25
2019-06-24 20:00:00 30.9 8 Sudoeste 19 Noroeste 0 929.3 -0.2 24
2019-06-24 19:00:00 30.7 6 Oeste 23 Sudoeste 0 929.3 -0.6 25
2019-06-24 18:00:00 31.2 15 Sudoeste 31 Sudoeste 0 929.5 -0.8 24
2019-06-24 17:00:00 31.4 16 Sudoeste 36 Oeste 0 929.5 -1.3 24
2019-06-24 16:00:00 30.9 15 Sudoeste 32 Sur 0 929.9 -1.5 24
2019-06-24 15:00:00 30.2 12 Sudoeste 28 Sur 0 930.3 -1.3 26
2019-06-24 14:00:00 29.1 11 Sur 26 Sudeste 0 930.8 -0.7 25
2019-06-24 13:00:00 26.6 7 Sudoeste 16 Sur 0 931.4 -0.1 30
2019-06-24 12:00:00 25.5 10 Sur 17 Sudoeste 0 931.6 0.5 33
2019-06-24 11:00:00 24.4 9 Sur 24 Sur 0 931.5 0.4 34
2019-06-24 10:00:00 23 15 Sur 24 Sur 0 931.5 0.6 36
2019-06-24 09:00:00 21.5 5 Nordeste 12 Este 0 931.1 0.5 37
2019-06-24 08:00:00 19.7 6 Nordeste 10 Este 0 931.1 0.5 39
2019-06-24 07:00:00 19.5 4 Nordeste 10 Este 0 930.9 0.2 37
2019-06-24 06:00:00 20.3 6 Norte 16 Este 0 930.6 0 35
2019-06-24 05:00:00 21.9 3 Norte 16 Sur 0 930.6 0.1 31
2019-06-24 04:00:00 22.9 4 Noroeste 20 Sur 0 930.7 0.6 31
2019-06-24 03:00:00 23.8 15 Sur 45 Sur 0 930.6 1 29
2019-06-24 02:00:00 25 30 Sur 50 Sur 0 930.5 1.9 29
2019-06-24 01:00:00 26.6 23 Sur 39 Sur 0 930.1 1.8 29
2019-06-24 00:00:00 27.4 13 Sur 33 Sur 0 929.6 1 29
2019-06-23 23:00:00 27.6 8 Sur 15 Sudeste 0 928.6 0.1 28
2019-06-23 22:00:00 29 5 Sudeste 8 Sudeste 0 928.3 -0.3 27
2019-06-23 21:00:00 31.1 4 Sudoeste 13 Oeste 0 928.6 -0.3 22
2019-06-23 20:00:00 31.8 10 Oeste 22 Sudoeste 0 928.5 -0.8 21
2019-06-23 19:00:00 31.9 12 Sudoeste 30 Sudoeste 0 928.6 -1.2 21
2019-06-23 18:00:00 33.3 14 Sudoeste 29 Sudoeste 0 928.9 -1.5 19
2019-06-23 17:00:00 33 9 Oeste 28 Sudoeste 0 929.3 -1.3 18
2019-06-23 16:00:00 32.8 7 Oeste 32 Oeste 0 929.8 -1.4 18
2019-06-23 15:00:00 31.6 13 Oeste 33 Sudoeste 0 930.4 -0.8 19
2019-06-23 14:00:00 30.4 16 Sudoeste 30 Oeste 0 930.6 -0.8 23
2019-06-23 13:00:00 29.5 12 Sudoeste 27 Oeste 0 931.2 -0.3 25
2019-06-23 12:00:00 28 12 Sudoeste 28 Sur 0 931.2 0 30
2019-06-23 11:00:00 26.4 9 Sur 19 Sur 0 931.4 0.4 34
2019-06-23 10:00:00 24.3 13 Sur 24 Sur 0 931.5 0.8 39
2019-06-23 09:00:00 23 3 Sur 10 Este 0 931.2 1 48
2019-06-23 08:00:00 19.5 5 Sudeste 8 Sudeste 0 931 1.5 61
2019-06-23 07:00:00 18.7 5 Sur 17 Norte 0 930.7 1 60
2019-06-23 06:00:00 20.4 3 Noroeste 31 Sudeste 0 930.2 0.1 56
2019-06-23 05:00:00 21.1 21 Sudeste 34 Sudeste 0 929.5 -0.8 53
2019-06-23 04:00:00 21.6 21 Sudeste 31 Sudeste 0 929.7 -0.5 48
2019-06-23 03:00:00 22.2 14 Sudeste 30 Sudeste 0 930.1 -0.2 48
2019-06-23 02:00:00 22.9 20 Sur 29 Sur 0 930.3 0.3 41
2019-06-23 01:00:00 21.5 0 Calma 11 Sur 0 930.2 0.6 34
2019-06-23 00:00:00 23 7 Sur 13 Sudeste 0 930.3 0.9 30
2019-06-22 23:00:00 24.1 7 Sur 11 Sur 0 930 0.8 28
2019-06-22 22:00:00 27.1 5 Sur 18 Oeste 0 929.6 0.2 24
2019-06-22 21:00:00 29.1 12 Sudoeste 26 Oeste 0 929.4 -0.3 20
2019-06-22 20:00:00 30.6 13 Sudoeste 30 Oeste 0 929.2 -0.9 19
2019-06-22 19:00:00 30.9 11 Oeste 26 Oeste 0 929.4 -1.2 19
2019-06-22 18:00:00 30.6 12 Oeste 26 Oeste 0 929.7 -1.6 21
2019-06-22 17:00:00 30.5 12 Sudoeste 31 Sudoeste 0 930.1 -2 22
2019-06-22 16:00:00 30 15 Sudoeste 37 Sudoeste 0 930.6 -2.1 23
2019-06-22 15:00:00 29.6 10 Sudoeste 32 Sudoeste 0 931.3 -1.9 25
2019-06-22 14:00:00 28.4 11 Sudoeste 26 Sudoeste 0 932.1 -1.4 29
2019-06-22 13:00:00 27 4 Oeste 12 Noroeste 0 932.7 -1.2 38
2019-06-22 12:00:00 24.5 5 Oeste 14 Norte 0 933.2 -0.7 45
2019-06-22 11:00:00 22.1 8 Noroeste 13 Noroeste 0 933.5 -0.3 52
2019-06-22 10:00:00 19.3 5 Norte 10 Norte 0 933.9 0.4 55
2019-06-22 09:00:00 17.8 4 Norte 10 Nordeste 0 933.9 0.7 58
2019-06-22 08:00:00 16.3 8 Nordeste 15 Nordeste 0 933.8 0.6 63
2019-06-22 07:00:00 14.8 8 Nordeste 15 Nordeste 0 933.5 0.2 68
2019-06-22 06:00:00 14.7 10 Nordeste 15 Nordeste 0 933.2 -0.6 68
2019-06-22 05:00:00 15.5 4 Nordeste 15 Nordeste 0 933.2 -0.5 64
2019-06-22 04:00:00 16.7 9 Nordeste 20 Nordeste 0 933.3 -0.3 61
2019-06-22 03:00:00 17.1 8 Norte 23 Nordeste 0 933.8 0.4 60
2019-06-22 02:00:00 17.7 10 Nordeste 21 Nordeste 0 933.7 0.9 59
2019-06-22 01:00:00 19.3 9 Nordeste 24 Este 0 933.6 1.7 53
2019-06-22 00:00:00 20.5 10 Nordeste 18 Este 0 933.4 2.1 48
2019-06-21 23:00:00 22.6 10 Nordeste 26 Norte 0 932.8 2 39
2019-06-21 22:00:00 24.2 14 Este 28 Este 0 931.9 1.5 38
2019-06-21 21:00:00 26 8 Norte 18 Norte 0 931.3 0.8 32
2019-06-21 20:00:00 27.3 9 Norte 23 Norte 0 930.8 0.1 29
2019-06-21 19:00:00 28 9 Norte 19 Norte 0 930.4 -0.4 28
2019-06-21 18:00:00 28 9 Nordeste 21 Noroeste 0 930.5 -0.4 28
2019-06-21 17:00:00 27.3 10 Nordeste 28 Norte 0 930.7 -0.7 27
2019-06-21 16:00:00 28.7 12 Sudoeste 21 Sudoeste 0 930.8 -0.9 23
2019-06-21 15:00:00 28.2 8 Sudoeste 22 Sudoeste 0 930.9 -1 23
2019-06-21 14:00:00 27.5 6 Oeste 18 Noroeste 0 931.4 -0.6 25
2019-06-21 13:00:00 25.6 7 Norte 21 Noroeste 0 931.7 -0.1 32
2019-06-21 12:00:00 24.4 7 Nordeste 19 Norte 0 931.9 0.2 40
2019-06-21 11:00:00 22.4 8 Norte 16 Nordeste 0 932 0.5 49
2019-06-21 10:00:00 21.3 9 Nordeste 17 Nordeste 0 931.8 0.7 52
2019-06-21 09:00:00 19.5 8 Nordeste 19 Nordeste 0 931.7 0.8 58
2019-06-21 08:00:00 17.2 13 Nordeste 22 Nordeste 0 931.5 0.8 65
2019-06-21 07:00:00 15.6 9 Nordeste 17 Nordeste 0 931.1 0.5 72
2019-06-21 06:00:00 16.4 7 Nordeste 18 Nordeste 0 930.9 0.5 68
2019-06-21 05:00:00 17.1 10 Nordeste 21 Nordeste 0 930.7 0.4 68
2019-06-21 04:00:00 17.5 8 Nordeste 19 Norte 0 930.6 0.6 64
2019-06-21 03:00:00 18.4 7 Nordeste 24 Nordeste 0 930.4 0.7 60
2019-06-21 02:00:00 19.5 9 Nordeste 19 Norte 0 930.3 0.9 58
2019-06-21 01:00:00 20.8 8 Norte 16 Nordeste 0 930 1.5 52
2019-06-21 00:00:00 22.8 8 Sudoeste 15 Sudoeste 0 929.7 1.6 38
2019-06-20 23:00:00 23.2 5 Sur 17 Sudoeste 0 929.4 1.2 37
2019-06-20 22:00:00 24.8 8 Sudoeste 23 Oeste 0 928.5 0.3 32
2019-06-20 21:00:00 26 12 Sudoeste 30 Sudoeste 0 928.1 -0.3 29
2019-06-20 20:00:00 26.9 16 Oeste 34 Oeste 0 928.2 -0.6 27
2019-06-20 19:00:00 27.8 17 Oeste 36 Sudoeste 0 928.2 -1.2 26
2019-06-20 18:00:00 27.7 15 Sudoeste 34 Oeste 0 928.4 -1.5 26
2019-06-20 17:00:00 27.6 13 Sudoeste 30 Oeste 0 928.8 -1.5 25
2019-06-20 16:00:00 26.3 9 Sudoeste 30 Oeste 0 929.4 -1.1 31
2019-06-20 15:00:00 26.7 11 Oeste 30 Oeste 0 929.9 -0.7 31
2019-06-20 14:00:00 25.9 14 Sudoeste 29 Oeste 0 930.3 -0.4 32
2019-06-20 13:00:00 25.5 11 Sudoeste 22 Sudoeste 0 930.5 -0.6 36
2019-06-20 12:00:00 24.9 6 Sudoeste 18 Sur 0 930.6 -0.7 36
2019-06-20 11:00:00 24.1 7 Este 25 Este 0 930.7 -0.4 39
2019-06-20 10:00:00 20.8 7 Noroeste 13 Norte 0 931.1 0.1 48
2019-06-20 09:00:00 19.2 4 Noroeste 7 Noroeste 0 931.3 0.6 52
2019-06-20 08:00:00 16.9 0 Calma 6 Sur 0 931.1 0.4 59
2019-06-20 07:00:00 16.2 3 Sudeste 10 Este 0 931 0.1 60
2019-06-20 06:00:00 16.6 6 Este 19 Sudeste 0 930.7 -0.2 57
2019-06-20 05:00:00 17.1 14 Sudeste 20 Sudeste 0 930.7 -0.4 56
2019-06-20 04:00:00 17.1 10 Sudeste 15 Sudeste 0 930.9 -0.3 56
2019-06-20 03:00:00 17.3 5 Sur 9 Sur 0 930.9 -0.4 55
2019-06-20 02:00:00 19.2 3 Sur 7 Sudoeste 0 931.1 -0.1 51
2019-06-20 01:00:00 20.4 5 Sudoeste 14 Sudoeste 0 931.2 0.4 46
2019-06-20 00:00:00 21.4 9 Sudoeste 21 Sudoeste 0 931.3 0.8 44
2019-06-19 23:00:00 22.3 13 Sudoeste 23 Sudoeste 0 931.2 0.9 40
2019-06-19 22:00:00 23.4 10 Sudoeste 27 Sudoeste 0 930.8 0.6 37
2019-06-19 21:00:00 24.7 17 Sudoeste 28 Oeste 0 930.5 0.1 35
2019-06-19 20:00:00 25.9 17 Oeste 37 Oeste 0 930.3 -0.4 33
2019-06-19 19:00:00 26.6 17 Sudoeste 34 Oeste 0 930.2 -1 31
2019-06-19 18:00:00 26.9 17 Sudoeste 37 Sudoeste 0 930.4 -1.1 31
2019-06-19 17:00:00 26.6 18 Sudoeste 36 Oeste 0 930.7 -1.3 33
2019-06-19 16:00:00 26.4 18 Oeste 40 Sudoeste 0 931.2 -1.1 33
2019-06-19 15:00:00 25.4 23 Sudoeste 44 Oeste 0 931.5 -0.7 35
2019-06-19 14:00:00 24.5 18 Sudoeste 38 Oeste 0 932 -0.1 40
2019-06-19 13:00:00 23.2 20 Oeste 35 Oeste 0 932.3 0.3 43
2019-06-19 12:00:00 22.3 18 Sudoeste 36 Sudoeste 0 932.2 0.4 46
2019-06-19 11:00:00 21.4 20 Sudoeste 36 Sudoeste 0 932.1 0.3 48
2019-06-19 10:00:00 20.8 17 Sudoeste 32 Sudoeste 0 932 0.5 50
2019-06-19 09:00:00 20.4 12 Sudoeste 24 Sudoeste 0 931.8 0.6 55
2019-06-19 08:00:00 18.6 14 Sudoeste 23 Sur 0 931.8 0.7 62
2019-06-19 07:00:00 17.8 11 Sudoeste 21 Sudoeste 0 931.5 0.6 67
2019-06-19 06:00:00 18.4 10 Sudoeste 21 Sudoeste 0 931.2 0.2 62
2019-06-19 05:00:00 19.2 14 Sudoeste 22 Sudoeste 0 931.1 0.1 58
2019-06-19 04:00:00 19.9 13 Sudoeste 22 Sudoeste 0 930.9 -0.2 52
2019-06-19 03:00:00 20.6 12 Sudoeste 18 Sudoeste 0 931 -0.2 47
2019-06-19 02:00:00 21 8 Sudoeste 16 Sudoeste 0 931 0 44
2019-06-19 01:00:00 21.2 8 Sudoeste 15 Oeste 0 931.1 0.9 43
2019-06-19 00:00:00 21.8 7 Sudoeste 19 Sudoeste 0 931.2 1.4 41
2019-06-18 23:00:00 23.1 9 Sudoeste 23 Oeste 0 931 1.5 36
2019-06-18 22:00:00 24.7 14 Oeste 30 Oeste 0 930.2 1.4 28
2019-06-18 21:00:00 26.5 18 Oeste 37 Oeste 0 929.8 0.8 17
2019-06-18 20:00:00 28.4 18 Oeste 42 Sudoeste 0 929.5 0.3 11
2019-06-18 19:00:00 29.4 14 Oeste 44 Oeste 0 928.8 -1 11
2019-06-18 18:00:00 29.7 21 Sudoeste 49 Oeste 0 929 -1.2 14
2019-06-18 17:00:00 29.6 22 Sudoeste 46 Oeste 0 929.2 -1.5 16
2019-06-18 16:00:00 29.4 22 Sudoeste 44 Oeste 0 929.8 -1.4 17
2019-06-18 15:00:00 28.7 22 Oeste 43 Oeste 0 930.2 -1.1 18
2019-06-18 14:00:00 27.9 23 Sudoeste 43 Oeste 0 930.7 -0.7 13
2019-06-18 13:00:00 27.1 16 Sudoeste 39 Sudoeste 0 931.2 -0.5 17
2019-06-18 12:00:00 26.4 17 Sudoeste 33 Oeste 0 931.3 -0.2 20
2019-06-18 11:00:00 25.1 13 Sudoeste 30 Sur 0 931.4 0.4 22
2019-06-18 10:00:00 23.5 14 Oeste 28 Sudoeste 0 931.7 1 23
2019-06-18 09:00:00 22.7 14 Sudoeste 23 Sudoeste 0 931.5 1.2 23
2019-06-18 08:00:00 20.4 10 Sur 21 Sudeste 0 931 1.2 31
2019-06-18 07:00:00 19.3 10 Sur 24 Sur 0 930.7 0.7 33
2019-06-18 06:00:00 20.2 14 Sur 31 Sur 0 930.3 -0.6 30
2019-06-18 05:00:00 21.4 14 Sudeste 27 Sudeste 0 929.8 -1.1 28
2019-06-18 04:00:00 21.1 5 Sudeste 13 Sudeste 0 930 -0.7 26
2019-06-18 03:00:00 21.2 0 Calma 5 Sur 0 930.9 0.1 28
2019-06-18 02:00:00 23.2 3 Oeste 11 Sur 0 930.9 0.5 26
2019-06-18 01:00:00 24.3 6 Sur 9 Sudoeste 0 930.7 0.7 23
2019-06-18 00:00:00 25.6 5 Sudoeste 14 Sudoeste 0 930.8 0.9 20
2019-06-17 23:00:00 26 8 Sur 14 Sur 0 930.4 0.3 19
2019-06-17 22:00:00 27.1 8 Sur 11 Sur 0 930 0 19
2019-06-17 21:00:00 28.7 6 Sudoeste 22 Oeste 0 929.9 -0.5 16
2019-06-17 20:00:00 30.4 9 Oeste 34 Oeste 0 930.1 -0.8 15
2019-06-17 19:00:00 30.8 12 Sudoeste 34 Oeste 0 930 -1.5 13
2019-06-17 18:00:00 30.9 18 Oeste 33 Sudoeste 0 930.4 -1.9 14
2019-06-17 17:00:00 30.9 11 Sudoeste 31 Sudoeste 0 930.9 -1.9 14
2019-06-17 16:00:00 30.3 16 Sudoeste 40 Sudeste 0 931.5 -1.9 14
2019-06-17 15:00:00 29.8 21 Sudoeste 36 Sudoeste 0 932.3 -1.6 15
2019-06-17 14:00:00 29.2 12 Sudoeste 25 Sudoeste 0 932.8 -1.3 20
2019-06-17 13:00:00 28.1 8 Noroeste 17 Noroeste 0 933.4 -1 21
2019-06-17 12:00:00 26.3 5 Oeste 15 Oeste 0 933.9 -0.4 29
2019-06-17 11:00:00 24.6 5 Oeste 10 Oeste 0 934.1 0 37
2019-06-17 10:00:00 21.1 6 Noroeste 10 Noroeste 0 934.4 0.5 44
2019-06-17 09:00:00 18.3 6 Noroeste 9 Noroeste 0 934.3 0.9 47
2019-06-17 08:00:00 16.4 0 Calma 6 Este 0 934.1 0.5 52
2019-06-17 07:00:00 15.1 0 Calma 11 Sudeste 0 933.9 0.5 50
2019-06-17 06:00:00 15.9 3 Nordeste 8 Sudeste 0 933.4 -0.1 53
2019-06-17 05:00:00 17.9 4 Norte 13 Norte 0 933.6 -0.1 39
2019-06-17 04:00:00 19.1 3 Sudeste 24 Sudeste 0 933.4 -0.4 38
2019-06-17 03:00:00 19.7 6 Sudeste 24 Sur 0 933.5 -0.3 35
2019-06-17 02:00:00 20.3 9 Sur 26 Sudeste 0 933.7 0.1 32
2019-06-17 01:00:00 21.6 18 Sur 30 Sur 0 933.8 0.8 29
2019-06-17 00:00:00 19.5 9 Sur 23 Sur 0 933.8 1.2 25
2019-06-16 23:00:00 21.4 5 Sur 12 Sur 0 933.6 1.2 23
2019-06-16 22:00:00 24.6 6 Sur 12 Sudoeste 0 933 0.7 20
2019-06-16 21:00:00 26.8 5 Oeste 16 Oeste 0 932.6 0.1 19
2019-06-16 20:00:00 27.9 8 Oeste 21 Sudoeste 0 932.4 -0.4 17
2019-06-16 19:00:00 28.6 12 Sudoeste 23 Oeste 0 932.3 -1 18
2019-06-16 18:00:00 28.8 12 Oeste 32 Sur 0 932.5 -1.4 17
2019-06-16 17:00:00 29.5 14 Sudoeste 27 Sudoeste 0 932.8 -1.6 17
2019-06-16 16:00:00 28.7 13 Sudoeste 28 Oeste 0 933.3 -1.6 19
2019-06-16 15:00:00 28.5 8 Sudoeste 32 Sudoeste 0 933.9 -1.5 21
2019-06-16 14:00:00 27.6 12 Sudoeste 25 Sudoeste 0 934.4 -1.3 21
2019-06-16 13:00:00 25.9 6 Norte 16 Oeste 0 934.9 -1 23
2019-06-16 12:00:00 24.5 6 Noroeste 14 Oeste 0 935.4 -0.3 25
2019-06-16 11:00:00 22.1 7 Noroeste 13 Noroeste 0 935.7 0.5 33
2019-06-16 10:00:00 19.2 7 Norte 12 Noroeste 0 935.9 0.9 40
2019-06-16 09:00:00 16.2 5 Norte 8 Norte 0 935.7 1 50
2019-06-16 08:00:00 13.2 5 Norte 8 Norte 0 935.2 0.4 54
2019-06-16 07:00:00 10.8 3 Nordeste 7 Nordeste 0 935 0 59
2019-06-16 06:00:00 11.4 5 Nordeste 10 Norte 0 934.7 -0.5 56
2019-06-16 05:00:00 12.3 4 Norte 10 Nordeste 0 934.8 -0.7 52
2019-06-16 04:00:00 12.5 4 Este 10 Nordeste 0 935 -0.7 48
2019-06-16 03:00:00 13.9 2 Nordeste 9 Nordeste 0 935.2 -0.1 39
2019-06-16 02:00:00 15.6 4 Norte 11 Nordeste 0 935.5 0.5 36
2019-06-16 01:00:00 16.1 8 Nordeste 11 Nordeste 0 935.7 1.5 32
2019-06-16 00:00:00 17.3 4 Sur 10 Sur 0 935.3 1.3 31
2019-06-15 23:00:00 18.2 5 Sur 11 Sur 0 935 1.2 30
2019-06-15 22:00:00 21.1 7 Sur 8 Sur 0 934.2 0.4 28
2019-06-15 21:00:00 23.5 5 Sur 11 Oeste 0 934 0.1 22
2019-06-15 20:00:00 25.1 4 Noroeste 15 Oeste 0 933.8 -0.4 19
2019-06-15 19:00:00 25.5 5 Sudoeste 18 Oeste 0 933.8 -0.6 18
2019-06-15 18:00:00 25.5 9 Oeste 18 Sur 0 933.9 -0.8 18
2019-06-15 17:00:00 24.7 8 Noroeste 21 Oeste 0 934.2 -0.9 19
2019-06-15 16:00:00 24.2 7 Oeste 21 Norte 0 934.4 -1 21
2019-06-15 15:00:00 23.2 8 Noroeste 21 Noroeste 0 934.7 -0.7 23
2019-06-15 14:00:00 22.1 8 Oeste 18 Oeste 0 935.1 -0.4 25
2019-06-15 13:00:00 21 6 Oeste 19 Noroeste 0 935.4 0 29
2019-06-15 12:00:00 20.1 5 Oeste 17 Sur 0 935.4 0.3 32
2019-06-15 11:00:00 18.7 5 Oeste 12 Sudoeste 0 935.5 0.9 37
2019-06-15 10:00:00 16.2 5 Norte 8 Norte 0 935.4 1.2 42
2019-06-15 09:00:00 14.6 4 Noroeste 10 Sur 0 935.1 1.6 47
2019-06-15 08:00:00 12.3 3 Sur 8 Sur 0 934.6 1.1 54
2019-06-15 07:00:00 10.8 4 Sur 13 Sudoeste 0 934.2 1.1 58
2019-06-15 06:00:00 12.3 6 Sudoeste 14 Sudoeste 0 933.5 0.6 53
2019-06-15 05:00:00 12.9 9 Sudoeste 17 Sudoeste 0 933.5 0.7 50
2019-06-15 04:00:00 13.8 10 Sudoeste 15 Sudoeste 0 933.1 0.6 46
2019-06-15 03:00:00 14.5 9 Sudoeste 17 Sudoeste 0 932.9 0.8 44
2019-06-15 02:00:00 15.1 9 Sudoeste 21 Oeste 0 932.8 0.9 41
2019-06-15 01:00:00 16.1 11 Sudoeste 19 Sudoeste 0 932.5 1.7 38
2019-06-15 00:00:00 16.6 7 Sudoeste 15 Sudoeste 0 932.1 2.2 36
2019-06-14 23:00:00 18 10 Sudoeste 30 Sudoeste 0 931.9 2.7 31
2019-06-14 22:00:00 19.5 15 Oeste 39 Oeste 0 930.8 2.2 28
2019-06-14 21:00:00 21.2 19 Oeste 40 Sudoeste 0 929.9 1.4 24
2019-06-14 20:00:00 22.8 21 Oeste 43 Oeste 0 929.2 0.6 21
2019-06-14 19:00:00 24.1 16 Oeste 41 Oeste 0 928.6 0 23
2019-06-14 18:00:00 24 23 Sudoeste 48 Sudoeste 0 928.5 -0.2 21
2019-06-14 17:00:00 24.4 22 Sudoeste 50 Sudoeste 0 928.6 -0.2 19
2019-06-14 16:00:00 24.5 23 Oeste 44 Oeste 0 928.6 0.1 22
2019-06-14 15:00:00 24.1 18 Oeste 42 Sudoeste 0 928.7 -0.1 22
2019-06-14 14:00:00 23.1 18 Sudoeste 42 Oeste 0 928.8 0.1 26
2019-06-14 13:00:00 22.2 24 Sudoeste 40 Oeste 0 928.5 -0.2 28
2019-06-14 12:00:00 21.4 16 Oeste 40 Oeste 0 928.8 0.4 31
2019-06-14 11:00:00 20.6 18 Oeste 32 Sudoeste 0 928.7 0.8 32
2019-06-14 10:00:00 19.1 13 Sudoeste 23 Sudoeste 0 928.7 1 34
2019-06-14 09:00:00 17.3 5 Oeste 10 Oeste 0 928.4 1.1 55
2019-06-14 08:00:00 14.6 3 Sur 6 Sur 0 927.9 0.7 57
2019-06-14 07:00:00 14.2 5 Sur 8 Sur 0 927.7 0.9 75
2019-06-14 06:00:00 14.6 2 Sudeste 18 Sudoeste 0 927.3 0.3 52
2019-06-14 05:00:00 16.5 5 Sudeste 20 Sur 0 927.2 0 63
2019-06-14 04:00:00 17.7 12 Sur 24 Sur 0 926.8 -0.5 62
2019-06-14 03:00:00 17.9 12 Sur 34 Sur 0 927 -0.1 59
2019-06-14 02:00:00 18.6 19 Sur 31 Sur 0 927.2 0.7 41
2019-06-14 01:00:00 19.2 15 Sur 23 Sur 0 927.3 1.6 29
2019-06-14 00:00:00 20.2 4 Sur 12 Sudoeste 0 927.1 2.3 27
2019-06-13 23:00:00 21.4 8 Sudoeste 15 Sudoeste 0 926.5 2.1 24
2019-06-13 22:00:00 23.7 7 Oeste 18 Oeste 0 925.7 1.4 21
2019-06-13 21:00:00 25.7 15 Oeste 32 Sudoeste 0 924.8 0.1 18
2019-06-13 20:00:00 26.6 15 Oeste 39 Noroeste 0 924.4 -0.7 17
2019-06-13 19:00:00 27.5 18 Oeste 34 Sur 0 924.3 -1.4 18
2019-06-13 18:00:00 27 17 Sur 38 Sudoeste 0 924.7 -1.3 27
2019-06-13 17:00:00 25.7 19 Sudoeste 37 Sudoeste 0 925.1 -1.6 27
2019-06-13 16:00:00 26.3 21 Sudoeste 43 Sur 0 925.7 -1.6 27
2019-06-13 15:00:00 25.7 21 Sudoeste 50 Sudoeste 0 926 -1.8 27
2019-06-13 14:00:00 23.7 19 Sudoeste 36 Sudoeste 0 926.7 -1.3 33
2019-06-13 13:00:00 22.9 16 Sudoeste 31 Sudoeste 0 927.3 -1 39
2019-06-13 12:00:00 21.7 15 Sudoeste 30 Sudoeste 0 927.8 -0.3 41
2019-06-13 11:00:00 20.7 13 Sur 24 Sur 0 928 0.2 48
2019-06-13 10:00:00 17.4 5 Norte 13 Noroeste 0 928.3 0.7 60
2019-06-13 09:00:00 15.8 5 Nordeste 10 Nordeste 0 928.1 0.9 64
2019-06-13 08:00:00 13.3 0 Calma 4 Sur 0 927.8 1 73
2019-06-13 07:00:00 11.9 4 Nordeste 9 Este 0 927.6 1.7 75
2019-06-13 06:00:00 13.5 3 Nordeste 19 Nordeste 0 927.2 1 70
2019-06-13 05:00:00 14.1 7 Norte 37 Sudeste 0 926.8 0.2 63
2019-06-13 04:00:00 14.6 25 Sudeste 40 Sudeste 0 925.9 -1.1 59
2019-06-13 03:00:00 15.4 23 Sudeste 38 Sudeste 0 926.2 -0.6 58
2019-06-13 02:00:00 16.1 22 Sudeste 34 Sur 0 926.6 -0.2 52
2019-06-13 01:00:00 16.3 21 Sur 36 Sur 0 927 0.5 43
2019-06-13 00:00:00 15.7 3 Sur 7 Sudeste 0 926.8 0.3 24
2019-06-12 23:00:00 17 3 Sur 7 Sudeste 0 926.8 0.3 22
2019-06-12 22:00:00 20.6 2 Sur 13 Sudoeste 0 926.5 0 19
2019-06-12 21:00:00 22.4 8 Oeste 25 Sur 0 926.5 -0.5 14
2019-06-12 20:00:00 23.6 13 Oeste 31 Sudoeste 0 926.5 -0.9 15
2019-06-12 19:00:00 24.4 12 Oeste 30 Oeste 0 926.5 -1.6 14
2019-06-12 18:00:00 24.3 7 Sudoeste 25 Oeste 0 927 -1.7 16
2019-06-12 17:00:00 23.7 12 Oeste 31 Sudoeste 0 927.4 -2.2 16
2019-06-12 16:00:00 22.9 11 Oeste 28 Sudoeste 0 928.1 -1.9 19
2019-06-12 15:00:00 22.3 8 Oeste 23 Sudoeste 0 928.7 -1.9 20
2019-06-12 14:00:00 21.1 14 Sudoeste 36 Sudoeste 0 929.6 -1.2 22
2019-06-12 13:00:00 20.1 11 Oeste 25 Sudoeste 0 930 -1 25
2019-06-12 12:00:00 18.8 6 Sudoeste 22 Sudoeste 0 930.6 -0.5 29
2019-06-12 11:00:00 16.6 5 Noroeste 10 Noroeste 0 930.8 0.1 38
2019-06-12 10:00:00 14.1 5 Noroeste 9 Norte 0 931 0.5 46
2019-06-12 09:00:00 12 4 Norte 7 Noroeste 0 931.1 1 53
2019-06-12 08:00:00 8.3 3 Este 6 Sur 0 930.7 0.6 62
2019-06-12 07:00:00 5.7 0 Calma 9 Este 0 930.5 0.1 71
2019-06-12 06:00:00 6.6 3 Este 6 Nordeste 0 930.1 -0.2 67
2019-06-12 05:00:00 7.3 0 Calma 8 Nordeste 0 930.1 -0.5 63
2019-06-12 04:00:00 8.6 4 Norte 12 Nordeste 0 930.4 -0.4 57
2019-06-12 03:00:00 10 3 Nordeste 13 Nordeste 0 930.3 -0.7 54
2019-06-12 02:00:00 10.8 4 Nordeste 11 Nordeste 0 930.6 -0.4 48
2019-06-12 01:00:00 10.7 3 Nordeste 17 Nordeste 0 930.8 0.1 41
2019-06-12 00:00:00 12.8 5 Nordeste 15 Este 0 931 0.7 34
2019-06-11 23:00:00 14 10 Este 17 Nordeste 0 931 1.3 29
2019-06-11 22:00:00 15.8 10 Nordeste 24 Nordeste 0 930.7 1.4 28
2019-06-11 21:00:00 17.4 13 Nordeste 30 Nordeste 0 930.3 1 23
2019-06-11 20:00:00 19.1 8 Norte 29 Nordeste 0 929.7 0.5 22
2019-06-11 19:00:00 19.8 11 Norte 30 Norte 0 929.3 -0.1 21
2019-06-11 18:00:00 19.8 13 Norte 33 Nordeste 0 929.3 -0.4 18
2019-06-11 17:00:00 20.4 11 Norte 31 Noroeste 0 929.2 -0.4 20
2019-06-11 16:00:00 19.5 9 Norte 32 Nordeste 0 929.4 -0.2 27
2019-06-11 15:00:00 17.7 10 Norte 31 Norte 0 929.7 0.4 33
2019-06-11 14:00:00 17.8 14 Nordeste 38 Este 0 929.6 0.8 37
2019-06-11 13:00:00 15.4 22 Nordeste 37 Nordeste 0 929.6 0.9 48
2019-06-11 12:00:00 14.2 18 Nordeste 38 Este 0 929.3 1 54
2019-06-11 11:00:00 14 19 Nordeste 32 Nordeste 0 928.8 0.9 54
2019-06-11 10:00:00 13.8 12 Nordeste 32 Nordeste 0 928.7 1 55
2019-06-11 09:00:00 13.1 17 Nordeste 32 Nordeste 0 928.3 1.1 57
2019-06-11 08:00:00 13.7 10 Nordeste 19 Este 0 927.9 0.5 57
2019-06-11 07:00:00 13.8 10 Nordeste 19 Nordeste 0 927.7 0 58
2019-06-11 06:00:00 14.1 7 Nordeste 15 Nordeste 0 927.2 -1 53
2019-06-11 05:00:00 14.1 7 Nordeste 13 Este 0 927.4 -1.4 49
2019-06-11 04:00:00 13.8 3 Nordeste 7 Este 0 927.7 -1.3 49
2019-06-11 03:00:00 13.5 3 Sudoeste 10 Nordeste 0 928.2 -1.1 48
2019-06-11 02:00:00 15 9 Nordeste 19 Este 0 928.8 -0.6 44
2019-06-11 01:00:00 16.3 14 Este 33 Este 0 929 0.2 38
2019-06-11 00:00:00 17.5 18 Este 27 Este 0 929.3 0.7 36
2019-06-10 23:00:00 18.8 5 Este 9 Este 0 929.4 1.1 29
2019-06-10 22:00:00 21 4 Nordeste 21 Norte 0 928.8 0 25
2019-06-10 21:00:00 23 6 Norte 26 Norte 0 928.6 -0.6 22
2019-06-10 20:00:00 24.9 6 Noroeste 29 Oeste 0 928.3 -1.6 19
2019-06-10 19:00:00 24.8 6 Sudoeste 28 Oeste 0 928.8 -1.6 22
2019-06-10 18:00:00 25.7 6 Oeste 26 Oeste 0 929.2 -1.7 23
2019-06-10 17:00:00 25.1 13 Sudoeste 27 Sudoeste 0 929.9 -1.6 24
2019-06-10 16:00:00 24.7 7 Noroeste 21 Oeste 0 930.4 -1.6 25
2019-06-10 15:00:00 24.3 6 Nordeste 23 Sudoeste 0 930.9 -1.4 23
2019-06-10 14:00:00 23.7 7 Noroeste 19 Noroeste 0 931.5 -1.2 24
2019-06-10 13:00:00 23 7 Oeste 19 Oeste 0 932 -0.9 27
2019-06-10 12:00:00 21.5 4 Sur 15 Norte 0 932.3 -0.5 34
2019-06-10 11:00:00 19.7 5 Norte 18 Norte 0 932.7 0 41
2019-06-10 10:00:00 17.2 5 Norte 13 Norte 0 932.9 0.2 54
2019-06-10 09:00:00 15.3 6 Norte 15 Nordeste 0 932.8 0.5 64
2019-06-10 08:00:00 13.5 6 Nordeste 17 Nordeste 0 932.7 0.6 69
2019-06-10 07:00:00 12.3 11 Nordeste 17 Nordeste 0 932.7 0 74
2019-06-10 06:00:00 13 8 Nordeste 21 Nordeste 0 932.3 -0.5 71
2019-06-10 05:00:00 13.8 9 Nordeste 19 Nordeste 0 932.1 -0.4 68
2019-06-10 04:00:00 14.7 9 Nordeste 17 Nordeste 0 932.7 0.2 61
2019-06-10 03:00:00 14.5 3 Sudeste 6 Este 0 932.8 1 45
2019-06-10 02:00:00 15.9 3 Este 9 Este 0 932.5 1.2 40
2019-06-10 01:00:00 18.4 4 Norte 16 Norte 0 932.5 1.7 32
2019-06-10 00:00:00 20.2 8 Noroeste 22 Nordeste 0 931.8 1.3 28
2019-06-09 23:00:00 21.2 6 Oeste 23 Sudoeste 0 931.3 1.1 24
2019-06-09 22:00:00 22 13 Sudoeste 22 Sudoeste 0 930.8 0.8 19
2019-06-09 21:00:00 23.6 14 Sudoeste 29 Sudoeste 0 930.5 0.3 17
2019-06-09 20:00:00 25.3 15 Sudoeste 36 Sudoeste 0 930.2 -0.4 16
2019-06-09 19:00:00 26.3 14 Oeste 33 Oeste 0 930 -1 15
2019-06-09 18:00:00 26.2 17 Sudoeste 38 Oeste 0 930.2 -1.4 16
2019-06-09 17:00:00 26 21 Oeste 40 Sudoeste 0 930.6 -1.6 14
2019-06-09 16:00:00 25.9 17 Sudoeste 41 Oeste 0 931 -1.8 17
2019-06-09 15:00:00 25.3 17 Oeste 39 Oeste 0 931.6 -1.5 19
2019-06-09 14:00:00 24.5 15 Sudoeste 39 Sudoeste 0 932.2 -1 24
2019-06-09 13:00:00 23.7 16 Sudoeste 37 Sudoeste 0 932.8 -0.5 28
2019-06-09 12:00:00 23.2 8 Oeste 23 Oeste 0 933.1 -0.3 33
2019-06-09 11:00:00 21.6 5 Oeste 11 Sudoeste 0 933.2 -0.1 41
2019-06-09 10:00:00 18.4 5 Norte 12 Noroeste 0 933.3 0.2 53
2019-06-09 09:00:00 17.6 4 Noroeste 8 Noroeste 0 933.4 0.2 56
2019-06-09 08:00:00 14.9 0 Calma 9 Sudeste 0 933.3 -0.2 65
2019-06-09 07:00:00 12.5 3 Sudeste 7 Sudeste 0 933.1 -0.4 72
2019-06-09 06:00:00 13 2 Sur 8 Sudeste 0 933.2 0.2 69
2019-06-09 05:00:00 14.5 3 Sur 8 Norte 0 933.5 0.3 64
2019-06-09 04:00:00 16.8 5 Nordeste 28 Sudeste 0 933.5 0.1 57
2019-06-09 03:00:00 17.5 17 Sudeste 32 Sur 0 933 -0.5 54
2019-06-09 02:00:00 17.7 19 Sudeste 35 Sudeste 0 933.2 -0.2 54
2019-06-09 01:00:00 18.7 23 Sur 41 Sur 0 933.4 0.8 51
2019-06-09 00:00:00 19.5 21 Sur 36 Sur 0 933.5 1.4 49
2019-06-08 23:00:00 21 19 Sur 36 Sudeste 0 933.4 1.5 44
2019-06-08 22:00:00 22.5 18 Sur 40 Sur 0 932.6 0.7 40
2019-06-08 21:00:00 24.9 23 Sur 39 Sur 0 932.1 -0.1 35
2019-06-08 20:00:00 26.1 23 Sur 42 Sur 0 931.9 -1 33
2019-06-08 19:00:00 26.7 22 Sur 40 Sudeste 0 931.9 -1.6 32
2019-06-08 18:00:00 27.7 21 Sur 37 Sur 0 932.2 -1.9 29
2019-06-08 17:00:00 27.3 22 Sur 42 Sudoeste 0 932.9 -1.9 28
2019-06-08 16:00:00 26.9 18 Sur 39 Sur 0 933.5 -1.8 28
2019-06-08 15:00:00 25.6 17 Sudoeste 33 Sur 0 934.1 -1.8 31
2019-06-08 14:00:00 25.2 21 Sur 40 Sudoeste 0 934.8 -1.5 33
2019-06-08 13:00:00 24.1 16 Sur 35 Sur 0 935.3 -1.4 34
2019-06-08 12:00:00 22.2 16 Sudoeste 29 Sudoeste 0 935.9 -1 34
2019-06-08 11:00:00 20.5 5 Sur 14 Noroeste 0 936.3 -0.5 32
2019-06-08 10:00:00 16.8 6 Nordeste 13 Norte 0 936.7 0.1 38
2019-06-08 09:00:00 13 6 Nordeste 10 Nordeste 0 936.9 0.4 46
2019-06-08 08:00:00 10.6 3 Nordeste 8 Nordeste 0 936.8 0.2 52
2019-06-08 07:00:00 8.1 3 Nordeste 6 Este 0 936.6 0.1 62
2019-06-08 06:00:00 8.3 3 Este 10 Norte 0 936.5 -0.2 59
2019-06-08 05:00:00 10.4 4 Norte 17 Nordeste 0 936.6 0.1 51
2019-06-08 04:00:00 13.1 10 Nordeste 22 Nordeste 0 936.5 0.1 39
2019-06-08 03:00:00 12.6 8 Norte 19 Nordeste 0 936.7 0.4 43
2019-06-08 02:00:00 13.4 8 Nordeste 24 Nordeste 0 936.5 0.4 41
2019-06-08 01:00:00 13.9 18 Este 26 Este 0 936.4 1.2 40
2019-06-08 00:00:00 14.4 5 Nordeste 12 Norte 0 936.3 1.7 37
2019-06-07 23:00:00 16.8 5 Nordeste 17 Noroeste 0 936.1 2 31
2019-06-07 22:00:00 18.3 7 Sudoeste 14 Sudoeste 0 935.2 1.5 29
2019-06-07 21:00:00 19.5 9 Sudoeste 23 Sudoeste 0 934.6 1 24
2019-06-07 20:00:00 20.9 11 Sudoeste 20 Noroeste 0 934.1 0.7 23
2019-06-07 19:00:00 21.7 10 Oeste 18 Oeste 0 933.7 0.3 22
2019-06-07 18:00:00 21.3 12 Sudoeste 26 Sur 0 933.6 0.5 22
2019-06-07 17:00:00 21.2 7 Oeste 26 Sudoeste 0 933.4 0.3 23
2019-06-07 16:00:00 20.1 12 Sudoeste 22 Sudoeste 0 933.4 0.5 25
2019-06-07 15:00:00 19.4 12 Sudeste 21 Este 0 933.1 0.7 28
2019-06-07 14:00:00 18 8 Norte 16 Norte 0 933.1 1.2 30
2019-06-07 13:00:00 17.5 8 Sur 16 Sudoeste 0 932.9 1.5 34
2019-06-07 12:00:00 15.5 8 Sudoeste 20 Noroeste 0 932.4 1.5 40
2019-06-07 11:00:00 14.5 7 Noroeste 17 Oeste 0 931.9 2 43
2019-06-07 10:00:00 13 6 Noroeste 18 Sudoeste 0 931.4 2.6 51
2019-06-07 09:00:00 11.2 10 Sudoeste 22 Sudoeste 0 930.9 3.2 64
2019-06-07 08:00:00 11.3 9 Oeste 21 Sudoeste 0 929.9 3.2 68
2019-06-07 07:00:00 11.1 8 Oeste 25 Oeste 0 928.8 2.7 82
2019-06-07 06:00:00 11.8 17 Oeste 43 Oeste 1.6 927.7 1.6 92
2019-06-07 05:00:00 13.9 22 Oeste 45 Sudoeste 0 926.7 1.4 81
2019-06-07 04:00:00 15.5 14 Oeste 40 Oeste 0 926.1 0.9 66
2019-06-07 03:00:00 15.8 26 Sudoeste 41 Oeste 0 926.1 0.7 61
2019-06-07 02:00:00 17.4 19 Sudoeste 35 Sudoeste 0 925.3 0.1 39
2019-06-07 01:00:00 17.7 17 Sudoeste 33 Sudoeste 0 925.2 0.7 31
2019-06-07 00:00:00 17.9 14 Sudoeste 23 Sudoeste 0 925.4 1.1 30
2019-06-06 23:00:00 19 12 Sudoeste 31 Sudoeste 0 925.2 0.9 26
2019-06-06 22:00:00 20.2 17 Sudoeste 41 Sudoeste 0 924.5 -0.1 24
2019-06-06 21:00:00 21.7 22 Sudoeste 48 Sudoeste 0 924.3 -0.9 21
2019-06-06 20:00:00 23 20 Sudoeste 44 Sudoeste 0 924.3 -1.6 20
2019-06-06 19:00:00 23.5 25 Oeste 59 Sudoeste 0 924.6 -2.2 19
2019-06-06 18:00:00 24.1 24 Sudoeste 48 Sudoeste 0 925.2 -2.3 18
2019-06-06 17:00:00 23.5 28 Sudoeste 49 Oeste 0 925.9 -2.3 17
2019-06-06 16:00:00 22.5 25 Sudoeste 48 Sudoeste 0 926.8 -2 19
2019-06-06 15:00:00 22.2 23 Sudoeste 45 Sudoeste 0 927.5 -1.7 24
2019-06-06 14:00:00 20.5 21 Sudoeste 48 Sudoeste 0 928.2 -1.3 26
2019-06-06 13:00:00 19.5 21 Sudoeste 40 Sudoeste 0 928.8 -1.1 27
2019-06-06 12:00:00 18.2 23 Sudoeste 37 Sudoeste 0 929.2 -0.7 32
2019-06-06 11:00:00 17.1 14 Sudoeste 26 Sudoeste 0 929.5 -0.4 35
2019-06-06 10:00:00 15.5 5 Oeste 18 Sudoeste 0 929.9 0 40
2019-06-06 09:00:00 13.8 6 Oeste 16 Sur 0 929.9 0 42
2019-06-06 08:00:00 11.3 6 Sudeste 12 Sudeste 0 929.9 0 45
2019-06-06 07:00:00 8.2 3 Sudeste 6 Norte 0 929.9 0.1 55
2019-06-06 06:00:00 9.3 2 Oeste 5 Oeste 0 929.9 0.1 54
2019-06-06 05:00:00 9.6 0 Calma 5 Sudeste 0 929.9 0 51
2019-06-06 04:00:00 10.8 4 Norte 7 Norte 0 929.8 -0.2 47
2019-06-06 03:00:00 11 0 Calma 6 Este 0 929.8 -0.1 45
2019-06-06 02:00:00 12.3 4 Sur 6 Sudeste 0 929.9 0.2 42
2019-06-06 01:00:00 12.5 3 Sur 8 Norte 0 930 0.8 40
2019-06-06 00:00:00 13.3 3 Sudeste 7 Nordeste 0 929.9 1 36
2019-06-05 23:00:00 15.4 3 Este 14 Noroeste 0 929.7 1.1 31
2019-06-05 22:00:00 17.3 7 Noroeste 21 Noroeste 0 929.2 0.9 27
2019-06-05 21:00:00 18.5 9 Noroeste 26 Noroeste 0 928.9 0.6 26
2019-06-05 20:00:00 20 10 Oeste 28 Oeste 0 928.6 0.1 23
2019-06-05 19:00:00 19.8 8 Noroeste 25 Noroeste 0 928.3 -0.2 23
2019-06-05 18:00:00 19.9 12 Noroeste 27 Noroeste 0 928.3 -0.2 24
2019-06-05 17:00:00 20.5 12 Oeste 31 Noroeste 0 928.5 -0.6 24
2019-06-05 16:00:00 20.7 9 Noroeste 30 Norte 0 928.5 -0.2 26
2019-06-05 15:00:00 19.1 17 Noroeste 33 Sudoeste 0 928.5 0.2 28
2019-06-05 14:00:00 17.8 14 Noroeste 35 Noroeste 0 929.1 1.3 29
2019-06-05 13:00:00 17.2 13 Noroeste 32 Norte 0 928.7 1.4 32
2019-06-05 12:00:00 16.4 11 Noroeste 34 Noroeste 0 928.3 2 38
2019-06-05 11:00:00 14.1 16 Noroeste 32 Noroeste 0.2 927.8 2.4 50
2019-06-05 10:00:00 14 18 Noroeste 31 Noroeste 0 927.3 2.6 49
2019-06-05 09:00:00 13.6 7 Oeste 27 Oeste 0 926.3 2.4 55
2019-06-05 08:00:00 14 6 Oeste 26 Oeste 0 925.4 1.5 55
2019-06-05 07:00:00 14.2 17 Oeste 33 Oeste 0 924.7 0.5 55
2019-06-05 06:00:00 15.8 16 Sudoeste 30 Sudoeste 0 923.9 -0.5 53
2019-06-05 05:00:00 16.1 17 Sudoeste 30 Sudoeste 0 923.9 -0.7 58
2019-06-05 04:00:00 16.7 17 Sudoeste 31 Sudoeste 0 924.2 -0.6 59
2019-06-05 03:00:00 18.7 18 Sudoeste 31 Sudoeste 0 924.4 -0.6 50
2019-06-05 02:00:00 19.7 10 Sudoeste 19 Sudoeste 0 924.6 -0.6 50
2019-06-05 01:00:00 20.7 7 Sudoeste 12 Oeste 0 924.8 -0.1 44
2019-06-05 00:00:00 21.4 5 Oeste 23 Oeste 0 925 0.1 42
2019-06-04 23:00:00 21.3 8 Sudoeste 21 Oeste 0 925.2 0.5 42
2019-06-04 22:00:00 22.9 9 Oeste 29 Oeste 0 924.9 0.2 38
2019-06-04 21:00:00 24.5 17 Oeste 39 Oeste 0 924.9 -0.2 32
2019-06-04 20:00:00 26.6 17 Oeste 43 Sudoeste 0 924.7 -0.8 28
2019-06-04 19:00:00 27.5 20 Oeste 44 Sudoeste 0 924.7 -1.3 27
2019-06-04 18:00:00 28.1 23 Sudoeste 49 Oeste 0 925.1 -1.5 26
2019-06-04 17:00:00 28.1 20 Oeste 49 Oeste 0 925.5 -1.9 27
2019-06-04 16:00:00 28.2 22 Sudoeste 50 Oeste 0 926 -2.2 26
2019-06-04 15:00:00 27.5 27 Sudoeste 48 Sudoeste 0 926.6 -2 30
2019-06-04 14:00:00 26.7 25 Oeste 49 Sudoeste 0 927.4 -1.5 30
2019-06-04 13:00:00 25.5 25 Sudoeste 45 Sudoeste 0 928.2 -1 34
2019-06-04 12:00:00 24.5 26 Sudoeste 42 Sudoeste 0 928.6 -0.5 37
2019-06-04 11:00:00 23.2 17 Sudoeste 35 Oeste 0 928.9 0 49
2019-06-04 10:00:00 22.1 17 Sudoeste 27 Oeste 0 929.2 0.5 53
2019-06-04 09:00:00 21 12 Sudoeste 22 Sudoeste 0 929.1 0.7 50
2019-06-04 08:00:00 19.6 9 Sudoeste 17 Sudoeste 0 928.9 0.5 49
2019-06-04 07:00:00 19.4 8 Sudoeste 17 Sur 0 928.7 -0.1 44
2019-06-04 06:00:00 19.4 8 Sudoeste 14 Sudoeste 0 928.4 -0.6 37
2019-06-04 05:00:00 21.3 11 Sudoeste 17 Sudoeste 0 928.4 -1.1 32
2019-06-04 04:00:00 20.3 12 Sur 18 Sur 0 928.8 -1 29
2019-06-04 03:00:00 19.9 8 Sur 13 Sur 0 929 -1.1 28
2019-06-04 02:00:00 19.8 6 Sur 11 Sur 0 929.5 -0.8 31
2019-06-04 01:00:00 20.4 8 Sur 11 Sur 0 929.8 -0.2 29
2019-06-04 00:00:00 22.2 5 Sur 11 Sur 0 930.1 0.3 26
2019-06-03 23:00:00 25 5 Sur 12 Sudoeste 0 930.3 0.5 22
2019-06-03 22:00:00 27 9 Sur 17 Oeste 0 930 -0.1 19
2019-06-03 21:00:00 29.5 11 Oeste 24 Oeste 0 929.8 -0.7 16
2019-06-03 20:00:00 30.9 17 Oeste 39 Sudoeste 0 929.8 -1.2 13
2019-06-03 19:00:00 31.5 19 Oeste 40 Oeste 0 930.1 -1.3 12
2019-06-03 18:00:00 31.9 22 Sudoeste 47 Sudoeste 0 930.5 -1.6 12
2019-06-03 17:00:00 31.4 26 Oeste 45 Sudoeste 0 931 -1.6 12
2019-06-03 16:00:00 31.9 25 Oeste 44 Sudoeste 0 931.4 -1.7 14
2019-06-03 15:00:00 31.5 21 Sudoeste 46 Sudoeste 0 932.1 -1.5 15
2019-06-03 14:00:00 30.4 18 Sudoeste 36 Sudoeste 0 932.6 -0.9 18
2019-06-03 13:00:00 29.4 14 Sudoeste 26 Sudoeste 0 933.1 -0.5 21
2019-06-03 12:00:00 27.2 11 Sudoeste 21 Oeste 0 933.6 0.2 26
2019-06-03 11:00:00 25.4 8 Sudoeste 22 Sur 0 933.5 0 29
2019-06-03 10:00:00 24.5 12 Sur 23 Sudeste 0 933.6 0.3 30
2019-06-03 09:00:00 22.7 5 Sudoeste 16 Sur 0 933.4 0.3 33
2019-06-03 08:00:00 20 3 Oeste 10 Sudeste 0 933.5 1 41
2019-06-03 07:00:00 19 3 Sur 13 Sur 0 933.3 0.3 40
2019-06-03 06:00:00 19.7 5 Este 19 Sudeste 0 933.1 0.5 39
2019-06-03 05:00:00 19.9 7 Sudeste 17 Sudeste 0 932.5 -0.6 38
2019-06-03 04:00:00 21.4 5 Noroeste 32 Sudeste 0 933 -0.4 37
2019-06-03 03:00:00 22.5 22 Sudeste 33 Sudeste 0 932.6 -0.7 31
2019-06-03 02:00:00 22.9 9 Sudeste 20 Sudeste 0 933.1 0 32
2019-06-03 01:00:00 23.1 6 Nordeste 11 Nordeste 0 933.4 1.2 33
2019-06-03 00:00:00 23.5 3 Este 8 Este 0 933.3 1.3 31
2019-06-02 23:00:00 26.7 4 Norte 23 Oeste 0 933.1 1.2 24
2019-06-02 22:00:00 27.2 8 Sudoeste 12 Sudoeste 0 932.2 0.3 20
2019-06-02 21:00:00 29.8 6 Sur 14 Oeste 0 932 -0.3 18
2019-06-02 20:00:00 31.5 9 Oeste 23 Oeste 0 931.9 -0.8 15
2019-06-02 19:00:00 32.3 11 Sudoeste 28 Sudoeste 0 931.9 -1.2 14
2019-06-02 18:00:00 32.9 15 Sudoeste 36 Sudoeste 0 932.3 -1.4 14
2019-06-02 17:00:00 33 7 Sudoeste 37 Sudoeste 0 932.7 -1.9 15
2019-06-02 16:00:00 32.6 11 Oeste 30 Oeste 0 933.1 -2.1 15
2019-06-02 15:00:00 32.2 6 Oeste 21 Sudoeste 0 933.7 -2 20
2019-06-02 14:00:00 30.7 6 Oeste 18 Noroeste 0 934.6 -1.2 22
2019-06-02 13:00:00 28.6 7 Noroeste 16 Norte 0 935.2 -0.8 24
2019-06-02 12:00:00 27.3 3 Sur 16 Sudoeste 0 935.7 -0.3 26
2019-06-02 11:00:00 25.1 8 Sudoeste 17 Sudeste 0 935.8 -0.2 27
2019-06-02 10:00:00 22.5 4 Noroeste 8 Noroeste 0 936 0.3 35
2019-06-02 09:00:00 20.8 3 Noroeste 8 Nordeste 0 936 0.3 39
2019-06-02 08:00:00 17.4 3 Norte 8 Noroeste 0 936 0.5 46
2019-06-02 07:00:00 15.7 3 Este 10 Sudeste 0 935.7 1 48
2019-06-02 06:00:00 16.2 0 Calma 9 Sudeste 0 935.7 0.7 46
2019-06-02 05:00:00 18.5 3 Norte 29 Sudeste 0 935.5 0.3 40
2019-06-02 04:00:00 20.1 20 Sudeste 40 Sudeste 0 934.7 -0.2 36
2019-06-02 03:00:00 21 20 Sudeste 33 Sur 0 935 0.4 34
2019-06-02 02:00:00 22.4 11 Sur 39 Sudeste 0 935.2 0.8 29
2019-06-02 01:00:00 23.3 10 Sur 31 Sur 0 934.9 1 26
2019-06-02 00:00:00 24.4 4 Sudoeste 14 Sudoeste 0 934.6 0.9 24
2019-06-01 23:00:00 25.6 9 Sur 17 Sur 0 934.4 0.8 22
2019-06-01 22:00:00 26.4 8 Sudeste 14 Sur 0 933.9 0.1 23
2019-06-01 21:00:00 30.2 8 Sur 14 Este 0 933.7 -0.6 16
2019-06-01 20:00:00 31.8 6 Este 16 Sudeste 0 933.6 -1 16
2019-06-01 19:00:00 32.4 6 Sudoeste 13 Sudoeste 0 933.8 -1.5 14
2019-06-01 18:00:00 32.5 6 Norte 15 Noroeste 0 934.3 -1.7 14
2019-06-01 17:00:00 32 4 Sudoeste 17 Oeste 0 934.6 -2.2 16
2019-06-01 16:00:00 31.4 5 Sudoeste 23 Oeste 0 935.3 -2.3 17
2019-06-01 15:00:00 30 7 Noroeste 19 Oeste 0 936 -2 22
2019-06-01 14:00:00 29.3 8 Oeste 19 Oeste 0 936.8 -1.4 24
2019-06-01 13:00:00 28.2 6 Noroeste 13 Oeste 0 937.6 -0.9 27
2019-06-01 12:00:00 25 7 Norte 13 Noroeste 0 938 -0.4 33
2019-06-01 11:00:00 23.7 4 Noroeste 10 Noroeste 0 938.2 -0.2 38
2019-06-01 10:00:00 22.1 5 Noroeste 13 Sudeste 0 938.5 0.5 41
2019-06-01 09:00:00 20.3 6 Sudeste 12 Sudeste 0 938.4 0.5 45
2019-06-01 08:00:00 17.2 0 Calma 6 Este 0 938.4 0.6 54
2019-06-01 07:00:00 14.3 2 Nordeste 9 Este 0 938 0.3 61
2019-06-01 06:00:00 14.6 4 Este 8 Este 0 937.9 0.5 58
2019-06-01 05:00:00 16.9 5 Este 17 Este 0 937.8 0.5 49
2019-06-01 04:00:00 19.1 5 Oeste 13 Sudeste 0 937.7 0.4 43
2019-06-01 03:00:00 19.9 3 Norte 24 Sudeste 0 937.4 0.1 37
2019-06-01 02:00:00 21.3 14 Sur 28 Sur 0 937.3 0.8 32
2019-06-01 01:00:00 22.4 15 Sur 26 Sudeste 0 937.3 1.2 28
2019-06-01 00:00:00 22.5 15 Sudeste 26 Sur 0 937.3 1.4 26
2019-05-31 23:00:00 23 9 Sur 16 Sudeste 0 936.5 0.6 26
2019-05-31 22:00:00 25 5 Sur 8 Sur 0 936.1 0 24
2019-05-31 21:00:00 28.8 5 Sur 14 Sur 0 935.9 -0.5 17
2019-05-31 20:00:00 30.5 3 Oeste 11 Nordeste 0 935.9 -1 16
2019-05-31 19:00:00 30.6 6 Norte 16 Este 0 936.1 -1.4 14
2019-05-31 18:00:00 31.1 5 Sudeste 20 Sudeste 0 936.4 -1.8 15
2019-05-31 17:00:00 31 8 Sudoeste 15 Sur 0 936.9 -1.8 16
2019-05-31 16:00:00 29.6 8 Norte 17 Norte 0 937.5 -1.8 16
2019-05-31 15:00:00 28.2 8 Noroeste 15 Noroeste 0 938.2 -1.3 18
2019-05-31 14:00:00 27.6 6 Norte 16 Noroeste 0 938.7 -1.1 22
2019-05-31 13:00:00 26.3 8 Noroeste 17 Noroeste 0 939.3 -0.9 26
2019-05-31 12:00:00 24.5 7 Norte 13 Norte 0 939.5 -0.6 31
2019-05-31 11:00:00 23 5 Noroeste 10 Noroeste 0 939.8 -0.3 34
2019-05-31 10:00:00 19.6 5 Nordeste 9 Nordeste 0 940.2 0.5 42
2019-05-31 09:00:00 17.7 3 Norte 7 Nordeste 0 940.1 0.6 44
2019-05-31 08:00:00 14.6 6 Nordeste 9 Nordeste 0 940.1 0.5 51
2019-05-31 07:00:00 12.9 2 Este 5 Este 0 939.7 0.1 54
2019-05-31 06:00:00 13.8 2 Nordeste 8 Sudeste 0 939.5 -0.6 49
2019-05-31 05:00:00 15.6 2 Este 13 Norte 0 939.6 -0.5 42
2019-05-31 04:00:00 17.4 5 Noroeste 17 Norte 0 939.6 -0.4 39
2019-05-31 03:00:00 18.4 8 Norte 15 Noroeste 0 940.1 0.5 34
2019-05-31 02:00:00 18.6 7 Nordeste 15 Sudeste 0 940.1 1 33
2019-05-31 01:00:00 19.7 5 Este 17 Norte 0 940 1.8 29
2019-05-31 00:00:00 21.4 14 Nordeste 29 Este 0 939.6 1.8 26
2019-05-30 23:00:00 22.1 12 Nordeste 22 Nordeste 0 939.1 1.6 22
2019-05-30 22:00:00 23.8 11 Nordeste 26 Este 0 938.2 0.6 19
2019-05-30 21:00:00 26.8 16 Este 31 Este 0 937.8 0 16
2019-05-30 20:00:00 28.7 13 Este 30 Nordeste 0 937.5 -0.7 15
2019-05-30 19:00:00 29.5 13 Nordeste 27 Este 0 937.6 -1.1 15
2019-05-30 18:00:00 29.7 10 Nordeste 28 Este 0 937.8 -1.4 16
2019-05-30 17:00:00 29.5 12 Nordeste 27 Nordeste 0 938.2 -1.4 15
2019-05-30 16:00:00 29.1 10 Nordeste 31 Norte 0 938.7 -1.2 17
2019-05-30 15:00:00 28.1 9 Nordeste 31 Este 0 939.2 -1.1 19
2019-05-30 14:00:00 27.3 10 Este 25 Este 0 939.6 -1.1 22
2019-05-30 13:00:00 25.6 13 Este 23 Este 0 939.9 -0.8 27
2019-05-30 12:00:00 23.6 8 Este 26 Nordeste 0 940.3 -0.5 33
2019-05-30 11:00:00 21.4 11 Nordeste 28 Nordeste 0 940.7 -0.1 36
2019-05-30 10:00:00 19.2 12 Nordeste 27 Este 0 940.7 0.2 43
2019-05-30 09:00:00 16.5 13 Nordeste 23 Este 0 940.8 0.6 48
2019-05-30 08:00:00 13.8 9 Este 18 Este 0 940.8 0.8 54
2019-05-30 07:00:00 12.1 14 Este 25 Este 0 940.5 0.3 57
2019-05-30 06:00:00 11.8 13 Este 20 Este 0 940.2 0 58
2019-05-30 05:00:00 12.6 13 Este 21 Este 0 940 -0.4 55
2019-05-30 04:00:00 13.1 10 Nordeste 19 Este 0 940.2 -0.3 54
2019-05-30 03:00:00 13.2 10 Este 17 Este 0 940.2 0.1 54
2019-05-30 02:00:00 13.7 12 Nordeste 18 Este 0 940.4 1 53
2019-05-30 01:00:00 15.7 9 Nordeste 23 Nordeste 0 940.5 2.1 44
2019-05-30 00:00:00 16.3 13 Nordeste 32 Nordeste 0 940.1 2.5 44
2019-05-29 23:00:00 18 18 Nordeste 33 Nordeste 0 939.4 2.5 41
2019-05-29 22:00:00 19.9 13 Este 30 Este 0 938.4 1.7 38
2019-05-29 21:00:00 22.8 18 Nordeste 30 Este 0 937.6 0.9 33
2019-05-29 20:00:00 24.6 14 Nordeste 29 Nordeste 0 936.9 -0.1 28
2019-05-29 19:00:00 25.7 15 Nordeste 34 Nordeste 0 936.7 -0.6 24
2019-05-29 18:00:00 25.3 14 Norte 34 Nordeste 0 936.7 -0.9 26
2019-05-29 17:00:00 24.9 13 Nordeste 34 Nordeste 0 937 -1.1 28
2019-05-29 16:00:00 23.8 14 Nordeste 36 Nordeste 0 937.3 -1.2 30
2019-05-29 15:00:00 22.5 14 Nordeste 38 Nordeste 0 937.6 -1.1 32
2019-05-29 14:00:00 21.1 21 Nordeste 41 Este 0 938.1 -0.9 34
2019-05-29 13:00:00 19.7 23 Nordeste 41 Nordeste 0 938.5 -0.6 37
2019-05-29 12:00:00 18.1 20 Nordeste 38 Nordeste 0 938.7 -0.2 39
2019-05-29 11:00:00 16.2 24 Nordeste 41 Nordeste 0 939 0.3 42
2019-05-29 10:00:00 14.8 17 Nordeste 28 Este 0 939.1 1 45
2019-05-29 09:00:00 12.8 12 Nordeste 29 Nordeste 0 938.9 1.1 51
2019-05-29 08:00:00 10.7 14 Nordeste 30 Este 0 938.7 1.2 57
2019-05-29 07:00:00 8.9 8 Este 31 Este 0 938.1 0.6 62
2019-05-29 06:00:00 9.4 18 Este 33 Este 0 937.8 0.4 58
2019-05-29 05:00:00 9.9 19 Este 34 Este 0 937.5 0.2 55
2019-05-29 04:00:00 10.3 18 Este 43 Este 0 937.5 0.3 56
2019-05-29 03:00:00 10.8 22 Este 34 Este 0 937.4 0.9 54
2019-05-29 02:00:00 11.3 12 Nordeste 26 Este 0 937.3 1.4 53
2019-05-29 01:00:00 12.5 12 Nordeste 28 Este 0 937.2 2.3 51
2019-05-29 00:00:00 13.8 16 Este 32 Este 0 936.5 2.2 47
2019-05-28 23:00:00 15.5 23 Este 34 Este 0 935.9 2.5 43
2019-05-28 22:00:00 17.9 18 Nordeste 40 Nordeste 0 934.9 2.3 32
2019-05-28 21:00:00 20 13 Nordeste 35 Nordeste 0 934.3 2.6 23
2019-05-28 20:00:00 21.7 13 Norte 36 Nordeste 0 933.4 1.7 22
2019-05-28 19:00:00 23.6 17 Norte 35 Noroeste 0 932.6 0.5 22
2019-05-28 18:00:00 25.1 11 Norte 27 Noroeste 0 931.7 -0.8 20
2019-05-28 17:00:00 24.8 8 Norte 24 Norte 0 931.7 -1.1 20
2019-05-28 16:00:00 23.7 10 Nordeste 24 Noroeste 0 932.1 -0.8 23
2019-05-28 15:00:00 22.7 9 Noroeste 23 Nordeste 0 932.5 -0.3 24
2019-05-28 14:00:00 21.9 10 Nordeste 26 Nordeste 0 932.8 0.3 25
2019-05-28 13:00:00 20.9 10 Nordeste 25 Nordeste 0 932.9 0.2 27
2019-05-28 12:00:00 19.8 10 Nordeste 25 Nordeste 0 932.8 0.2 30
2019-05-28 11:00:00 18.4 15 Nordeste 27 Nordeste 0 932.5 0.4 35
2019-05-28 10:00:00 15.9 10 Nordeste 26 Este 0 932.7 1.6 46
2019-05-28 09:00:00 14 14 Nordeste 24 Nordeste 0 932.6 1.5 48
2019-05-28 08:00:00 11.9 14 Nordeste 28 Este 0 932.1 1 56
2019-05-28 07:00:00 11.2 16 Nordeste 31 Este 0 931.1 0.1 59
2019-05-28 06:00:00 11.6 10 Nordeste 19 Nordeste 0 931.1 0 64
2019-05-28 05:00:00 12.4 9 Nordeste 19 Nordeste 0 931.1 -0.1 63
2019-05-28 04:00:00 12.8 7 Nordeste 27 Nordeste 0 931 -0.3 67
2019-05-28 03:00:00 13.6 14 Nordeste 26 Nordeste 0 931.1 0.3 66
2019-05-28 02:00:00 14.7 16 Nordeste 28 Este 0 931.2 0.9 63
2019-05-28 01:00:00 15.9 17 Nordeste 34 Nordeste 0 931.3 1.5 58
2019-05-28 00:00:00 17.5 21 Este 33 Este 0 930.8 1.8 52
2019-05-27 23:00:00 18.9 17 Este 32 Este 0 930.3 2.1 49
2019-05-27 22:00:00 21.1 13 Nordeste 27 Nordeste 0 929.8 1.7 43
2019-05-27 21:00:00 23.7 11 Nordeste 26 Norte 0 929 0.7 35
2019-05-27 20:00:00 25.3 12 Nordeste 27 Nordeste 0 928.2 -0.4 28
2019-05-27 19:00:00 26.7 9 Norte 25 Noroeste 0 928.1 -0.7 26
2019-05-27 18:00:00 27.2 13 Noroeste 31 Norte 0 928.3 -0.8 26
2019-05-27 17:00:00 26.8 12 Noroeste 28 Noroeste 0 928.6 -1.3 27
2019-05-27 16:00:00 26.2 11 Nordeste 34 Noroeste 0 928.8 -1.8 28
2019-05-27 15:00:00 26.2 8 Norte 32 Noroeste 0 929.1 -2.2 29
2019-05-27 14:00:00 24.7 7 Nordeste 15 Nordeste 0 929.9 -1.8 29
2019-05-27 13:00:00 23.6 4 Nordeste 14 Sudoeste 0 930.6 -1.2 33
2019-05-27 12:00:00 21.8 6 Norte 10 Noroeste 0 931.3 -0.7 37
2019-05-27 11:00:00 20.3 4 Nordeste 10 Norte 0 931.7 0 43
2019-05-27 10:00:00 17.4 2 Sudoeste 8 Norte 0 931.8 0.1 53
2019-05-27 09:00:00 14.7 3 Noroeste 12 Nordeste 0 932 0.4 60
2019-05-27 08:00:00 12.2 5 Nordeste 13 Este 0 931.7 0 68
2019-05-27 07:00:00 10.5 4 Nordeste 8 Sudeste 0 931.7 -0.2 74
2019-05-27 06:00:00 11.3 2 Noroeste 8 Este 0 931.6 -1 72
2019-05-27 05:00:00 12.6 3 Noroeste 16 Este 0 931.7 -1.1 65
2019-05-27 04:00:00 12.3 9 Este 12 Este 0 931.9 -1.2 65
2019-05-27 03:00:00 14.5 5 Norte 19 Nordeste 0 932.6 -0.7 58
2019-05-27 02:00:00 15.4 4 Norte 25 Este 0 932.8 -0.5 54
2019-05-27 01:00:00 15.7 11 Nordeste 25 Este 0 933.1 0.7 53
2019-05-27 00:00:00 16.9 13 Nordeste 21 Nordeste 0 933.3 1.3 49
2019-05-26 23:00:00 18.4 12 Nordeste 17 Este 0 933.3 1.7 45
2019-05-26 22:00:00 20.5 11 Este 21 Nordeste 0 932.4 0.7 38
2019-05-26 21:00:00 23.2 14 Nordeste 27 Nordeste 0 932 -0.1 31
2019-05-26 20:00:00 25.2 12 Nordeste 25 Nordeste 0 931.6 -0.9 28
2019-05-26 19:00:00 26 11 Nordeste 38 Nordeste 0 931.7 -1.2 26
2019-05-26 18:00:00 25.9 13 Norte 36 Nordeste 0 932.1 -1.3 26
2019-05-26 17:00:00 25.4 14 Nordeste 39 Este 0 932.5 -1.5 25
2019-05-26 16:00:00 25 11 Nordeste 33 Nordeste 0 932.9 -1.7 26
2019-05-26 15:00:00 23.8 12 Nordeste 32 Nordeste 0 933.4 -1.5 28
2019-05-26 14:00:00 21.7 11 Norte 28 Nordeste 0 934 -1.5 33
2019-05-26 13:00:00 20.4 9 Nordeste 22 Nordeste 0 934.6 -1 34
2019-05-26 12:00:00 18.5 9 Nordeste 23 Este 0 934.9 -0.8 39
2019-05-26 11:00:00 16.8 14 Este 27 Nordeste 0 935.5 -0.2 42
2019-05-26 10:00:00 15.5 15 Este 31 Nordeste 0 935.6 0.1 47
2019-05-26 09:00:00 12.6 19 Este 29 Este 0 935.7 0.2 57
2019-05-26 08:00:00 10.6 15 Este 30 Este 0 935.7 0 65
2019-05-26 07:00:00 8.9 8 Nordeste 17 Nordeste 0 935.5 -0.3 72
2019-05-26 06:00:00 9.1 6 Norte 23 Nordeste 0 935.5 -0.6 72
2019-05-26 05:00:00 9.8 9 Nordeste 21 Nordeste 0 935.7 -0.6 72
2019-05-26 04:00:00 10.2 12 Nordeste 17 Nordeste 0 935.8 -0.6 72
2019-05-26 03:00:00 11 9 Norte 21 Nordeste 0 936.1 -0.2 69
2019-05-26 02:00:00 11.8 8 Nordeste 19 Este 0 936.3 0.3 66
2019-05-26 01:00:00 12.8 8 Nordeste 25 Nordeste 0 936.4 1.4 62
2019-05-26 00:00:00 14 12 Nordeste 24 Norte 0 936.3 2.1 58